sensor_id;sensor_type;location;lat;lon;timestamp;pressure;altitude;pressure_sealevel;temperature;humidity
69689;BME280;56932;38.402;-96.176;2023-02-21T00:01:38;96811.48;;;20.73;20.55
69689;BME280;56932;38.402;-96.176;2023-02-21T00:04:03;96810.01;;;21.38;20.61
69689;BME280;56932;38.402;-96.176;2023-02-21T00:06:29;96807.20;;;21.26;20.93
69689;BME280;56932;38.402;-96.176;2023-02-21T00:08:54;96808.87;;;21.57;20.77
69689;BME280;56932;38.402;-96.176;2023-02-21T00:11:20;96813.40;;;21.98;20.94
69689;BME280;56932;38.402;-96.176;2023-02-21T00:13:45;96810.55;;;22.09;20.50
69689;BME280;56932;38.402;-96.176;2023-02-21T00:16:14;96804.81;;;20.75;21.74
69689;BME280;56932;38.402;-96.176;2023-02-21T00:18:37;96802.25;;;21.50;21.27
69689;BME280;56932;38.402;-96.176;2023-02-21T00:21:02;96803.12;;;21.71;20.72
69689;BME280;56932;38.402;-96.176;2023-02-21T00:23:27;96807.09;;;22.19;20.51
69689;BME280;56932;38.402;-96.176;2023-02-21T00:25:53;96807.67;;;21.59;20.67
69689;BME280;56932;38.402;-96.176;2023-02-21T00:28:18;96805.98;;;22.43;20.40
69689;BME280;56932;38.402;-96.176;2023-02-21T00:30:43;96807.36;;;21.96;20.44
69689;BME280;56932;38.402;-96.176;2023-02-21T00:33:09;96809.32;;;22.31;20.20
69689;BME280;56932;38.402;-96.176;2023-02-21T00:35:34;96810.66;;;22.57;20.06
69689;BME280;56932;38.402;-96.176;2023-02-21T00:38:00;96810.39;;;21.79;20.62
69689;BME280;56932;38.402;-96.176;2023-02-21T00:40:25;96808.51;;;21.97;20.21
69689;BME280;56932;38.402;-96.176;2023-02-21T00:42:51;96806.32;;;21.75;20.07
69689;BME280;56932;38.402;-96.176;2023-02-21T00:45:16;96811.90;;;21.37;20.59
69689;BME280;56932;38.402;-96.176;2023-02-21T00:47:42;96813.86;;;20.83;20.28
69689;BME280;56932;38.402;-96.176;2023-02-21T00:50:07;96819.42;;;22.67;19.29
69689;BME280;56932;38.402;-96.176;2023-02-21T00:52:33;96816.14;;;21.43;19.82
69689;BME280;56932;38.402;-96.176;2023-02-21T00:54:58;96823.13;;;21.65;19.70
69689;BME280;56932;38.402;-96.176;2023-02-21T00:57:23;96832.25;;;20.58;20.47
69689;BME280;56932;38.402;-96.176;2023-02-21T00:59:48;96833.11;;;20.84;20.00
69689;BME280;56932;38.402;-96.176;2023-02-21T01:02:14;96835.26;;;22.21;19.08
69689;BME280;56932;38.402;-96.176;2023-02-21T01:04:40;96830.36;;;21.04;19.44
69689;BME280;56932;38.402;-96.176;2023-02-21T01:07:05;96830.59;;;21.45;19.29
69689;BME280;56932;38.402;-96.176;2023-02-21T01:09:30;96836.56;;;21.48;19.59
69689;BME280;56932;38.402;-96.176;2023-02-21T01:11:56;96839.96;;;21.81;19.31
69689;BME280;56932;38.402;-96.176;2023-02-21T01:14:22;96849.62;;;21.74;19.49
69689;BME280;56932;38.402;-96.176;2023-02-21T01:16:47;96850.59;;;21.76;19.21
69689;BME280;56932;38.402;-96.176;2023-02-21T01:19:13;96847.04;;;21.49;19.60
69689;BME280;56932;38.402;-96.176;2023-02-21T01:21:38;96847.85;;;21.43;19.45
69689;BME280;56932;38.402;-96.176;2023-02-21T01:24:05;96852.28;;;21.70;19.18
69689;BME280;56932;38.402;-96.176;2023-02-21T01:26:29;96856.18;;;20.57;19.95
69689;BME280;56932;38.402;-96.176;2023-02-21T01:28:55;96854.27;;;21.05;19.52
69689;BME280;56932;38.402;-96.176;2023-02-21T01:31:21;96862.15;;;20.71;19.63
69689;BME280;56932;38.402;-96.176;2023-02-21T01:33:45;96857.96;;;20.88;19.55
69689;BME280;56932;38.402;-96.176;2023-02-21T01:36:11;96862.44;;;21.93;18.83
69689;BME280;56932;38.402;-96.176;2023-02-21T01:38:37;96876.48;;;21.79;18.97
69689;BME280;56932;38.402;-96.176;2023-02-21T01:41:02;96886.23;;;21.03;19.58
69689;BME280;56932;38.402;-96.176;2023-02-21T01:43:28;96883.48;;;21.55;19.16
69689;BME280;56932;38.402;-96.176;2023-02-21T01:45:55;96879.65;;;20.59;19.52
69689;BME280;56932;38.402;-96.176;2023-02-21T01:48:21;96884.24;;;21.58;19.09
69689;BME280;56932;38.402;-96.176;2023-02-21T01:50:44;96889.55;;;21.40;19.06
69689;BME280;56932;38.402;-96.176;2023-02-21T01:53:12;96902.65;;;22.29;19.09
69689;BME280;56932;38.402;-96.176;2023-02-21T01:55:37;96907.30;;;22.22;19.38
69689;BME280;56932;38.402;-96.176;2023-02-21T01:58:01;96915.49;;;20.87;20.24
69689;BME280;56932;38.402;-96.176;2023-02-21T02:00:26;96919.60;;;21.39;19.84
69689;BME280;56932;38.402;-96.176;2023-02-21T02:02:55;96926.33;;;21.22;19.50
69689;BME280;56932;38.402;-96.176;2023-02-21T02:05:17;96933.65;;;21.27;19.73
69689;BME280;56932;38.402;-96.176;2023-02-21T02:07:43;96935.02;;;20.40;19.75
69689;BME280;56932;38.402;-96.176;2023-02-21T02:10:09;96940.25;;;20.59;20.02
69689;BME280;56932;38.402;-96.176;2023-02-21T02:12:44;96941.34;;;21.30;19.63
69689;BME280;56932;38.402;-96.176;2023-02-21T02:15:11;96939.05;;;21.20;19.57
69689;BME280;56932;38.402;-96.176;2023-02-21T02:17:36;96939.84;;;21.90;19.22
69689;BME280;56932;38.402;-96.176;2023-02-21T02:29:47;96928.09;;;20.28;20.56
69689;BME280;56932;38.402;-96.176;2023-02-21T02:32:13;96925.26;;;21.59;19.48
69689;BME280;56932;38.402;-96.176;2023-02-21T02:36:50;96919.61;;;21.34;19.60
69689;BME280;56932;38.402;-96.176;2023-02-21T02:39:20;96927.82;;;21.72;19.54
69689;BME280;56932;38.402;-96.176;2023-02-21T02:41:47;96931.02;;;21.16;19.76
69689;BME280;56932;38.402;-96.176;2023-02-21T02:44:11;96931.76;;;20.77;20.30
69689;BME280;56932;38.402;-96.176;2023-02-21T02:46:31;96936.60;;;21.51;19.82
69689;BME280;56932;38.402;-96.176;2023-02-21T02:49:01;96949.74;;;21.45;20.09
69689;BME280;56932;38.402;-96.176;2023-02-21T02:51:22;96950.25;;;22.04;20.29
69689;BME280;56932;38.402;-96.176;2023-02-21T02:53:47;96952.70;;;21.59;20.97
69689;BME280;56932;38.402;-96.176;2023-02-21T02:56:14;96948.23;;;21.67;21.30
69689;BME280;56932;38.402;-96.176;2023-02-21T02:58:41;96947.67;;;20.77;22.40
69689;BME280;56932;38.402;-96.176;2023-02-21T03:01:15;96947.06;;;20.99;22.06
69689;BME280;56932;38.402;-96.176;2023-02-21T03:06:04;96944.08;;;21.47;21.63
69689;BME280;56932;38.402;-96.176;2023-02-21T03:08:26;96947.37;;;21.50;21.76
69689;BME280;56932;38.402;-96.176;2023-02-21T03:10:49;96950.77;;;21.38;21.66
69689;BME280;56932;38.402;-96.176;2023-02-21T03:13:17;96955.22;;;21.22;22.03
69689;BME280;56932;38.402;-96.176;2023-02-21T03:15:43;96958.00;;;21.37;21.98
69689;BME280;56932;38.402;-96.176;2023-02-21T03:18:06;96955.63;;;21.69;21.98
69689;BME280;56932;38.402;-96.176;2023-02-21T03:20:28;96959.77;;;20.73;22.47
69689;BME280;56932;38.402;-96.176;2023-02-21T03:22:54;96961.56;;;20.88;22.54
69689;BME280;56932;38.402;-96.176;2023-02-21T03:25:22;96959.98;;;21.10;22.32
69689;BME280;56932;38.402;-96.176;2023-02-21T03:27:44;96967.03;;;20.68;22.21
69689;BME280;56932;38.402;-96.176;2023-02-21T03:30:11;96971.31;;;21.68;21.74
69689;BME280;56932;38.402;-96.176;2023-02-21T03:32:39;96976.36;;;21.44;21.88
69689;BME280;56932;38.402;-96.176;2023-02-21T03:35:01;96980.84;;;20.64;22.51
69689;BME280;56932;38.402;-96.176;2023-02-21T03:37:32;96986.26;;;20.19;23.23
69689;BME280;56932;38.402;-96.176;2023-02-21T03:39:52;96993.15;;;21.31;22.07
69689;BME280;56932;38.402;-96.176;2023-02-21T03:42:18;96994.11;;;20.64;22.44
69689;BME280;56932;38.402;-96.176;2023-02-21T03:44:43;96995.76;;;20.61;21.98
69689;BME280;56932;38.402;-96.176;2023-02-21T03:47:09;96997.78;;;21.36;21.83
69689;BME280;56932;38.402;-96.176;2023-02-21T03:49:34;96999.25;;;20.92;22.12
69689;BME280;56932;38.402;-96.176;2023-02-21T03:52:00;96995.28;;;20.56;22.59
69689;BME280;56932;38.402;-96.176;2023-02-21T03:54:25;96996.26;;;21.23;21.77
69689;BME280;56932;38.402;-96.176;2023-02-21T03:56:51;97004.37;;;21.09;21.83
69689;BME280;56932;38.402;-96.176;2023-02-21T03:59:16;97001.44;;;21.17;21.69
69689;BME280;56932;38.402;-96.176;2023-02-21T04:01:42;96996.87;;;21.06;21.58
69689;BME280;56932;38.402;-96.176;2023-02-21T04:04:09;96993.62;;;21.06;21.68
69689;BME280;56932;38.402;-96.176;2023-02-21T04:06:33;96999.96;;;21.20;21.53
69689;BME280;56932;38.402;-96.176;2023-02-21T04:08:58;97002.78;;;21.26;21.40
69689;BME280;56932;38.402;-96.176;2023-02-21T04:11:24;97005.60;;;21.02;21.54
69689;BME280;56932;38.402;-96.176;2023-02-21T04:13:50;97011.65;;;21.07;21.27
69689;BME280;56932;38.402;-96.176;2023-02-21T04:16:15;97013.12;;;21.51;21.22
69689;BME280;56932;38.402;-96.176;2023-02-21T04:18:41;97018.42;;;20.21;21.40
69689;BME280;56932;38.402;-96.176;2023-02-21T04:21:06;97010.73;;;20.76;21.55
69689;BME280;56932;38.402;-96.176;2023-02-21T04:23:32;97011.32;;;21.22;21.12
69689;BME280;56932;38.402;-96.176;2023-02-21T04:25:57;97008.30;;;21.06;21.20
69689;BME280;56932;38.402;-96.176;2023-02-21T04:28:23;97003.41;;;20.75;21.40
69689;BME280;56932;38.402;-96.176;2023-02-21T04:30:48;97005.53;;;20.58;21.51
69689;BME280;56932;38.402;-96.176;2023-02-21T04:33:14;97008.38;;;21.30;21.10
69689;BME280;56932;38.402;-96.176;2023-02-21T04:35:40;97010.32;;;20.64;21.03
69689;BME280;56932;38.402;-96.176;2023-02-21T04:38:05;97014.21;;;20.92;21.10
69689;BME280;56932;38.402;-96.176;2023-02-21T04:40:31;97017.60;;;21.06;21.18
69689;BME280;56932;38.402;-96.176;2023-02-21T04:42:56;97019.12;;;20.60;21.28
69689;BME280;56932;38.402;-96.176;2023-02-21T04:45:22;97023.77;;;21.18;20.99
69689;BME280;56932;38.402;-96.176;2023-02-21T04:47:47;97029.23;;;20.73;20.92
69689;BME280;56932;38.402;-96.176;2023-02-21T04:50:13;97025.01;;;20.29;21.38
69689;BME280;56932;38.402;-96.176;2023-02-21T04:52:39;97022.42;;;21.09;20.77
69689;BME280;56932;38.402;-96.176;2023-02-21T04:55:05;97023.76;;;20.99;21.01
69689;BME280;56932;38.402;-96.176;2023-02-21T04:57:29;97023.23;;;21.02;20.69
69689;BME280;56932;38.402;-96.176;2023-02-21T04:59:57;97022.43;;;20.40;21.19
69689;BME280;56932;38.402;-96.176;2023-02-21T05:02:21;97028.08;;;20.56;21.24
69689;BME280;56932;38.402;-96.176;2023-02-21T05:04:46;97022.33;;;20.25;21.21
69689;BME280;56932;38.402;-96.176;2023-02-21T05:07:12;97024.90;;;21.19;20.66
69689;BME280;56932;38.402;-96.176;2023-02-21T05:09:38;97022.85;;;21.08;20.68
69689;BME280;56932;38.402;-96.176;2023-02-21T05:12:03;97017.41;;;20.92;20.78
69689;BME280;56932;38.402;-96.176;2023-02-21T05:14:28;97018.50;;;20.19;21.10
69689;BME280;56932;38.402;-96.176;2023-02-21T05:16:54;97020.49;;;20.58;20.78
69689;BME280;56932;38.402;-96.176;2023-02-21T05:19:20;97015.90;;;20.65;20.88
69689;BME280;56932;38.402;-96.176;2023-02-21T05:21:45;97013.05;;;19.33;21.51
69689;BME280;56932;38.402;-96.176;2023-02-21T05:24:11;97019.39;;;20.30;20.95
69689;BME280;56932;38.402;-96.176;2023-02-21T05:26:37;97022.29;;;20.16;21.18
69689;BME280;56932;38.402;-96.176;2023-02-21T05:29:02;97023.46;;;20.87;20.62
69689;BME280;56932;38.402;-96.176;2023-02-21T05:31:27;97028.94;;;20.66;21.00
69689;BME280;56932;38.402;-96.176;2023-02-21T05:33:53;97029.23;;;19.93;21.16
69689;BME280;56932;38.402;-96.176;2023-02-21T05:36:18;97033.99;;;20.70;20.70
69689;BME280;56932;38.402;-96.176;2023-02-21T05:38:44;97034.86;;;19.38;21.28
69689;BME280;56932;38.402;-96.176;2023-02-21T05:41:09;97034.29;;;20.93;20.47
69689;BME280;56932;38.402;-96.176;2023-02-21T05:43:34;97039.70;;;20.48;20.78
69689;BME280;56932;38.402;-96.176;2023-02-21T05:46:00;97043.27;;;20.77;20.53
69689;BME280;56932;38.402;-96.176;2023-02-21T05:48:26;97042.40;;;20.01;21.06
69689;BME280;56932;38.402;-96.176;2023-02-21T05:50:51;97047.74;;;19.98;20.85
69689;BME280;56932;38.402;-96.176;2023-02-21T05:53:17;97057.74;;;20.08;20.92
69689;BME280;56932;38.402;-96.176;2023-02-21T05:55:42;97064.07;;;19.52;20.81
69689;BME280;56932;38.402;-96.176;2023-02-21T05:58:07;97068.17;;;20.23;20.81
69689;BME280;56932;38.402;-96.176;2023-02-21T06:00:33;97068.30;;;20.54;20.52
69689;BME280;56932;38.402;-96.176;2023-02-21T06:02:58;97075.17;;;19.61;21.19
69689;BME280;56932;38.402;-96.176;2023-02-21T06:05:24;97068.71;;;19.32;20.48
69689;BME280;56932;38.402;-96.176;2023-02-21T06:07:49;97071.08;;;19.86;20.58
69689;BME280;56932;38.402;-96.176;2023-02-21T06:10:16;97078.46;;;21.02;20.04
69689;BME280;56932;38.402;-96.176;2023-02-21T06:12:41;97081.92;;;19.77;20.56
69689;BME280;56932;38.402;-96.176;2023-02-21T06:15:07;97082.19;;;20.28;20.55
69689;BME280;56932;38.402;-96.176;2023-02-21T06:17:32;97087.53;;;20.30;20.53
69689;BME280;56932;38.402;-96.176;2023-02-21T06:19:57;97095.07;;;20.16;20.40
69689;BME280;56932;38.402;-96.176;2023-02-21T06:22:23;97096.31;;;20.41;20.39
69689;BME280;56932;38.402;-96.176;2023-02-21T06:24:48;97100.13;;;20.39;20.19
69689;BME280;56932;38.402;-96.176;2023-02-21T06:27:14;97105.99;;;20.45;20.31
69689;BME280;56932;38.402;-96.176;2023-02-21T06:29:40;97111.72;;;19.59;21.02
69689;BME280;56932;38.402;-96.176;2023-02-21T06:32:05;97107.69;;;20.97;19.93
69689;BME280;56932;38.402;-96.176;2023-02-21T06:34:31;97105.70;;;20.50;20.26
69689;BME280;56932;38.402;-96.176;2023-02-21T06:36:56;97107.59;;;20.10;20.32
69689;BME280;56932;38.402;-96.176;2023-02-21T06:39:22;97107.55;;;20.05;20.36
69689;BME280;56932;38.402;-96.176;2023-02-21T06:41:49;97100.39;;;20.04;20.16
69689;BME280;56932;38.402;-96.176;2023-02-21T06:44:13;97097.58;;;20.15;20.42
69689;BME280;56932;38.402;-96.176;2023-02-21T06:46:39;97096.76;;;20.59;20.08
69689;BME280;56932;38.402;-96.176;2023-02-21T06:49:04;97101.67;;;19.71;20.70
69689;BME280;56932;38.402;-96.176;2023-02-21T06:51:34;97099.72;;;19.95;20.53
69689;BME280;56932;38.402;-96.176;2023-02-21T06:53:56;97097.61;;;19.87;20.18
69689;BME280;56932;38.402;-96.176;2023-02-21T06:56:21;97100.98;;;20.07;20.20
69689;BME280;56932;38.402;-96.176;2023-02-21T06:58:46;97105.47;;;19.43;20.68
69689;BME280;56932;38.402;-96.176;2023-02-21T07:01:12;97110.87;;;20.07;20.14
69689;BME280;56932;38.402;-96.176;2023-02-21T07:03:39;97107.26;;;19.80;20.52
69689;BME280;56932;38.402;-96.176;2023-02-21T07:06:03;97105.53;;;20.08;20.14
69689;BME280;56932;38.402;-96.176;2023-02-21T07:08:28;97108.79;;;20.33;20.10
69689;BME280;56932;38.402;-96.176;2023-02-21T07:10:54;97103.64;;;19.92;20.43
69689;BME280;56932;38.402;-96.176;2023-02-21T07:13:20;97100.68;;;20.18;20.24
69689;BME280;56932;38.402;-96.176;2023-02-21T07:15:45;97096.84;;;19.72;20.19
69689;BME280;56932;38.402;-96.176;2023-02-21T07:18:11;97095.41;;;20.21;20.15
69689;BME280;56932;38.402;-96.176;2023-02-21T07:20:36;97085.77;;;19.84;20.41
69689;BME280;56932;38.402;-96.176;2023-02-21T07:23:01;97079.83;;;20.11;20.18
69689;BME280;56932;38.402;-96.176;2023-02-21T07:25:27;97073.76;;;20.36;19.98
69689;BME280;56932;38.402;-96.176;2023-02-21T07:27:53;97066.55;;;19.80;20.38
69689;BME280;56932;38.402;-96.176;2023-02-21T07:30:18;97066.03;;;18.74;21.19
69689;BME280;56932;38.402;-96.176;2023-02-21T07:32:44;97062.75;;;19.67;20.09
69689;BME280;56932;38.402;-96.176;2023-02-21T07:35:09;97066.52;;;20.02;20.16
69689;BME280;56932;38.402;-96.176;2023-02-21T07:37:34;97066.25;;;20.49;20.13
69689;BME280;56932;38.402;-96.176;2023-02-21T07:40:00;97082.68;;;20.08;20.09
69689;BME280;56932;38.402;-96.176;2023-02-21T07:42:26;97081.63;;;20.19;20.13
69689;BME280;56932;38.402;-96.176;2023-02-21T07:44:55;97073.18;;;20.04;20.08
69689;BME280;56932;38.402;-96.176;2023-02-21T07:47:17;97076.08;;;19.83;20.19
69689;BME280;56932;38.402;-96.176;2023-02-21T07:49:43;97070.56;;;19.71;20.09
69689;BME280;56932;38.402;-96.176;2023-02-21T07:52:08;97069.04;;;20.00;20.06
69689;BME280;56932;38.402;-96.176;2023-02-21T07:54:33;97066.55;;;19.92;20.08
69689;BME280;56932;38.402;-96.176;2023-02-21T07:56:59;97065.52;;;19.48;20.42
69689;BME280;56932;38.402;-96.176;2023-02-21T07:59:25;97059.34;;;20.07;20.15
69689;BME280;56932;38.402;-96.176;2023-02-21T08:01:50;97045.32;;;19.60;20.09
69689;BME280;56932;38.402;-96.176;2023-02-21T08:04:16;97034.49;;;19.67;20.20
69689;BME280;56932;38.402;-96.176;2023-02-21T08:06:42;97036.94;;;19.09;20.27
69689;BME280;56932;38.402;-96.176;2023-02-21T08:09:07;97040.22;;;20.02;20.08
69689;BME280;56932;38.402;-96.176;2023-02-21T08:11:32;97033.14;;;19.02;20.84
69689;BME280;56932;38.402;-96.176;2023-02-21T08:13:58;97028.97;;;19.95;19.95
69689;BME280;56932;38.402;-96.176;2023-02-21T08:16:24;97035.75;;;18.87;20.74
69689;BME280;56932;38.402;-96.176;2023-02-21T08:18:49;97031.90;;;18.98;20.67
69689;BME280;56932;38.402;-96.176;2023-02-21T08:21:15;97014.77;;;19.21;20.47
69689;BME280;56932;38.402;-96.176;2023-02-21T08:23:41;97006.83;;;19.24;20.45
69689;BME280;56932;38.402;-96.176;2023-02-21T08:26:06;97012.51;;;20.09;20.08
69689;BME280;56932;38.402;-96.176;2023-02-21T08:28:32;97012.01;;;19.69;20.01
69689;BME280;56932;38.402;-96.176;2023-02-21T08:30:57;97006.90;;;19.82;20.08
69689;BME280;56932;38.402;-96.176;2023-02-21T08:33:23;97006.64;;;19.88;20.00
69689;BME280;56932;38.402;-96.176;2023-02-21T08:35:48;97030.29;;;19.37;20.25
69689;BME280;56932;38.402;-96.176;2023-02-21T08:38:14;97026.29;;;19.84;20.02
69689;BME280;56932;38.402;-96.176;2023-02-21T08:40:40;97012.51;;;19.46;20.13
69689;BME280;56932;38.402;-96.176;2023-02-21T08:43:05;97003.40;;;19.63;19.97
69689;BME280;56932;38.402;-96.176;2023-02-21T08:45:30;97003.91;;;20.05;19.94
69689;BME280;56932;38.402;-96.176;2023-02-21T08:47:57;97011.03;;;19.16;20.32
69689;BME280;56932;38.402;-96.176;2023-02-21T08:50:23;97004.83;;;19.82;19.97
69689;BME280;56932;38.402;-96.176;2023-02-21T08:52:48;97007.71;;;19.24;20.02
69689;BME280;56932;38.402;-96.176;2023-02-21T08:55:13;97010.79;;;19.41;20.22
69689;BME280;56932;38.402;-96.176;2023-02-21T08:57:39;97004.59;;;19.72;20.15
69689;BME280;56932;38.402;-96.176;2023-02-21T09:00:04;97005.36;;;19.86;20.02
69689;BME280;56932;38.402;-96.176;2023-02-21T09:02:29;97001.82;;;19.54;20.26
69689;BME280;56932;38.402;-96.176;2023-02-21T09:04:55;96998.29;;;19.32;20.24
69689;BME280;56932;38.402;-96.176;2023-02-21T09:07:21;96987.59;;;19.83;19.83
69689;BME280;56932;38.402;-96.176;2023-02-21T09:09:46;96981.03;;;19.21;19.76
69689;BME280;56932;38.402;-96.176;2023-02-21T09:12:11;96970.00;;;19.32;20.02
69689;BME280;56932;38.402;-96.176;2023-02-21T09:14:39;96968.58;;;19.18;20.47
69689;BME280;56932;38.402;-96.176;2023-02-21T09:17:03;96964.05;;;19.12;20.49
69689;BME280;56932;38.402;-96.176;2023-02-21T09:19:28;96963.01;;;19.44;20.08
69689;BME280;56932;38.402;-96.176;2023-02-21T09:21:54;96965.35;;;18.88;20.34
69689;BME280;56932;38.402;-96.176;2023-02-21T09:24:20;96954.05;;;18.78;20.50
69689;BME280;56932;38.402;-96.176;2023-02-21T09:26:45;96942.00;;;19.14;20.08
69689;BME280;56932;38.402;-96.176;2023-02-21T09:29:11;96937.08;;;19.33;20.10
69689;BME280;56932;38.402;-96.176;2023-02-21T09:31:36;96935.80;;;19.48;20.12
69689;BME280;56932;38.402;-96.176;2023-02-21T09:34:02;96938.61;;;19.45;19.96
69689;BME280;56932;38.402;-96.176;2023-02-21T09:36:27;96939.55;;;19.38;20.19
69689;BME280;56932;38.402;-96.176;2023-02-21T09:38:53;96934.45;;;18.95;20.17
69689;BME280;56932;38.402;-96.176;2023-02-21T09:41:19;96918.10;;;19.19;20.30
69689;BME280;56932;38.402;-96.176;2023-02-21T09:43:46;96904.72;;;18.79;20.06
69689;BME280;56932;38.402;-96.176;2023-02-21T09:46:13;96893.67;;;19.22;20.22
69689;BME280;56932;38.402;-96.176;2023-02-21T09:48:35;96885.39;;;18.94;20.42
69689;BME280;56932;38.402;-96.176;2023-02-21T09:51:04;96882.82;;;19.21;20.21
69689;BME280;56932;38.402;-96.176;2023-02-21T09:53:29;96881.26;;;19.47;20.06
69689;BME280;56932;38.402;-96.176;2023-02-21T09:55:56;96875.21;;;19.33;19.99
69689;BME280;56932;38.402;-96.176;2023-02-21T09:58:19;96864.99;;;19.10;20.11
69689;BME280;56932;38.402;-96.176;2023-02-21T10:00:43;96856.40;;;18.20;20.40
69689;BME280;56932;38.402;-96.176;2023-02-21T10:03:18;96861.34;;;19.02;20.32
69689;BME280;56932;38.402;-96.176;2023-02-21T10:05:42;96870.40;;;18.61;20.62
69689;BME280;56932;38.402;-96.176;2023-02-21T10:08:05;96879.06;;;18.78;20.47
69689;BME280;56932;38.402;-96.176;2023-02-21T10:10:30;96878.84;;;19.12;20.22
69689;BME280;56932;38.402;-96.176;2023-02-21T10:12:55;96889.24;;;18.91;20.02
69689;BME280;56932;38.402;-96.176;2023-02-21T10:15:27;96888.85;;;18.30;20.77
69689;BME280;56932;38.402;-96.176;2023-02-21T10:17:46;96881.09;;;18.91;20.02
69689;BME280;56932;38.402;-96.176;2023-02-21T10:20:14;96875.23;;;18.94;20.29
69689;BME280;56932;38.402;-96.176;2023-02-21T10:22:38;96865.01;;;19.09;20.35
69689;BME280;56932;38.402;-96.176;2023-02-21T10:25:00;96869.81;;;18.32;20.55
69689;BME280;56932;38.402;-96.176;2023-02-21T10:27:26;96875.24;;;19.23;20.02
69689;BME280;56932;38.402;-96.176;2023-02-21T10:29:53;96884.19;;;18.65;20.08
69689;BME280;56932;38.402;-96.176;2023-02-21T10:32:16;96891.76;;;19.19;20.02
69689;BME280;56932;38.402;-96.176;2023-02-21T10:34:43;96897.74;;;18.47;20.19
69689;BME280;56932;38.402;-96.176;2023-02-21T10:37:24;96890.09;;;19.15;20.00
69689;BME280;56932;38.402;-96.176;2023-02-21T10:39:39;96898.60;;;18.64;20.36
69689;BME280;56932;38.402;-96.176;2023-02-21T10:41:58;96910.65;;;19.02;20.07
69689;BME280;56932;38.402;-96.176;2023-02-21T10:44:26;96920.77;;;19.04;20.06
69689;BME280;56932;38.402;-96.176;2023-02-21T10:46:54;96928.36;;;19.11;20.00
69689;BME280;56932;38.402;-96.176;2023-02-21T10:49:22;96932.32;;;18.57;20.37
69689;BME280;56932;38.402;-96.176;2023-02-21T10:51:41;96930.32;;;19.06;19.99
69689;BME280;56932;38.402;-96.176;2023-02-21T10:54:17;96926.23;;;19.16;20.10
69689;BME280;56932;38.402;-96.176;2023-02-21T10:56:32;96931.76;;;19.20;20.09
69689;BME280;56932;38.402;-96.176;2023-02-21T10:59:00;96938.59;;;19.03;19.99
69689;BME280;56932;38.402;-96.176;2023-02-21T11:01:34;96946.13;;;18.85;20.13
69689;BME280;56932;38.402;-96.176;2023-02-21T11:03:51;96956.32;;;19.01;19.84
69689;BME280;56932;38.402;-96.176;2023-02-21T11:06:23;96954.76;;;19.12;19.89
69689;BME280;56932;38.402;-96.176;2023-02-21T11:08:41;96950.02;;;18.77;20.17
69689;BME280;56932;38.402;-96.176;2023-02-21T11:11:05;96950.23;;;18.73;20.20
69689;BME280;56932;38.402;-96.176;2023-02-21T11:13:32;96956.18;;;18.76;20.18
69689;BME280;56932;38.402;-96.176;2023-02-21T11:18:23;96947.98;;;19.20;20.00
69689;BME280;56932;38.402;-96.176;2023-02-21T11:20:47;96947.65;;;17.88;20.45
69689;BME280;56932;38.402;-96.176;2023-02-21T11:23:18;96952.13;;;18.57;20.28
69689;BME280;56932;38.402;-96.176;2023-02-21T11:25:39;96960.84;;;19.31;20.07
69689;BME280;56932;38.402;-96.176;2023-02-21T11:28:06;96955.78;;;18.90;20.21
69689;BME280;56932;38.402;-96.176;2023-02-21T11:30:31;96950.11;;;18.97;20.13
69689;BME280;56932;38.402;-96.176;2023-02-21T11:32:57;96947.12;;;18.65;20.17
69689;BME280;56932;38.402;-96.176;2023-02-21T11:35:25;96953.83;;;18.78;20.25
69689;BME280;56932;38.402;-96.176;2023-02-21T11:37:48;96959.37;;;18.08;20.26
69689;BME280;56932;38.402;-96.176;2023-02-21T11:40:21;96957.46;;;18.47;20.31
69689;BME280;56932;38.402;-96.176;2023-02-21T11:42:38;96953.14;;;18.88;20.15
69689;BME280;56932;38.402;-96.176;2023-02-21T11:45:14;96947.40;;;18.68;20.09
69689;BME280;56932;38.402;-96.176;2023-02-21T11:47:34;96944.15;;;18.85;20.15
69689;BME280;56932;38.402;-96.176;2023-02-21T11:50:00;96944.26;;;18.96;20.04
69689;BME280;56932;38.402;-96.176;2023-02-21T11:52:23;96945.59;;;18.92;20.13
69689;BME280;56932;38.402;-96.176;2023-02-21T11:54:46;96941.43;;;18.01;20.03
69689;BME280;56932;38.402;-96.176;2023-02-21T11:57:19;96939.98;;;18.90;20.08
69689;BME280;56932;38.402;-96.176;2023-02-21T11:59:44;96937.62;;;18.70;20.20
69689;BME280;56932;38.402;-96.176;2023-02-21T12:04:43;96928.40;;;19.17;20.00
69689;BME280;56932;38.402;-96.176;2023-02-21T12:06:58;96929.71;;;18.66;20.01
69689;BME280;56932;38.402;-96.176;2023-02-21T12:09:23;96930.36;;;18.88;19.85
69689;BME280;56932;38.402;-96.176;2023-02-21T12:11:51;96927.59;;;18.24;20.13
69689;BME280;56932;38.402;-96.176;2023-02-21T12:14:22;96928.21;;;18.75;20.11
69689;BME280;56932;38.402;-96.176;2023-02-21T12:16:52;96928.53;;;18.99;20.09
69689;BME280;56932;38.402;-96.176;2023-02-21T12:19:15;96937.22;;;18.68;20.31
69689;BME280;56932;38.402;-96.176;2023-02-21T12:21:44;96953.78;;;18.32;20.38
69689;BME280;56932;38.402;-96.176;2023-02-21T12:23:59;96964.37;;;18.85;20.12
69689;BME280;56932;38.402;-96.176;2023-02-21T12:26:30;96962.66;;;18.84;20.11
69689;BME280;56932;38.402;-96.176;2023-02-21T12:28:58;96962.80;;;18.02;20.41
69689;BME280;56932;38.402;-96.176;2023-02-21T12:31:17;96957.57;;;18.46;20.41
69689;BME280;56932;38.402;-96.176;2023-02-21T12:33:43;96956.97;;;18.41;20.24
69689;BME280;56932;38.402;-96.176;2023-02-21T12:36:14;96960.42;;;18.26;20.14
69689;BME280;56932;38.402;-96.176;2023-02-21T12:38:31;96969.42;;;18.15;20.58
69689;BME280;56932;38.402;-96.176;2023-02-21T12:40:57;96979.61;;;17.96;20.38
69689;BME280;56932;38.402;-96.176;2023-02-21T12:43:26;96984.62;;;18.69;20.17
69689;BME280;56932;38.402;-96.176;2023-02-21T12:45:52;96982.73;;;18.07;20.09
69689;BME280;56932;38.402;-96.176;2023-02-21T12:48:14;96984.29;;;18.51;20.16
69689;BME280;56932;38.402;-96.176;2023-02-21T12:50:37;96981.86;;;18.41;20.41